Overview Statistics Trail Chart Weather Telemetry Raw packets
 

This is the latest recevied weather packets stored in our database for station/object JA6YCL-13. If no packets are shown the sender has not sent any weather packets the latest 10 day(s).

<< 1 2 3 4 5 6 >>
Time Temp. Humidity Pressure Rain* Wind** Luminosity Snow
1788569844 23.33° C 89% 1010.4 hPa 0 mm - - -
1788568999 22.78° C 89% 1010.2 hPa 0 mm - - -
1788568143 22.78° C 89% 1010.2 hPa 0 mm - - -
1788567314 22.78° C 88% 1009.9 hPa 0 mm - - -
1788566564 22.78° C 89% 1010 hPa 0 mm - - -
1788565784 22.22° C 93% 1009.9 hPa 0 mm - - -
1788565066 22.22° C 95% 1009.9 hPa 0 mm - - -
1788564289 21.11° C 98% 1009.8 hPa 0 mm - - -
1788563458 21.11° C 98% 1009.9 hPa 0 mm - - -
1788562729 20.56° C 98% 1009.7 hPa 0 mm - - -
1788561858 20.56° C 98% 1009.8 hPa 0 mm - - -
1788561109 20.56° C 98% 1009.7 hPa 0 mm - - -
1788560311 20.56° C 99% 1009.7 hPa 0 mm - - -
1788559499 20.56° C 99% 1009.8 hPa 0 mm - - -
1788558701 20.56° C 98% 1009.8 hPa 0 mm - - -
1788557934 20.56° C 99% 1009.9 hPa 0 mm - - -
1788557105 20° C 99% 1010 hPa 0 mm - - -
1788556339 20° C 99% 1010 hPa 0 mm - - -
1788555553 20° C 98% 1009.8 hPa 0 mm - - -
1788554740 20° C 98% 1009.7 hPa 0 mm - - -
1788553996 20° C 98% 1009.6 hPa 0 mm - - -
1788553201 20° C 98% 1009.8 hPa 0 mm - - -
1788552321 20° C 98% 1009.4 hPa 0 mm - - -
1788551509 20° C 98% 1009.4 hPa 0 mm - - -
1788550629 20° C 98% 1009.5 hPa 0 mm - - -

* Rain latest hour (hover to see other rain measurements)
** Current wind speed in m/s (hover to see current wind gust speed)